createdAt,value
2024-03-24T00:00:39.989Z,3.70
2024-03-24T00:05:45.555Z,3.23
2024-03-24T00:10:51.507Z,3.07
2024-03-24T00:15:57.301Z,2.80
2024-03-24T00:21:03.075Z,2.73
2024-03-24T00:26:08.741Z,2.63
2024-03-24T00:31:15.233Z,2.40
2024-03-24T00:36:21.005Z,2.87
2024-03-24T00:41:27.283Z,3.10
2024-03-24T00:46:33.371Z,3.00
2024-03-24T00:51:38.925Z,3.20
2024-03-24T00:56:45.106Z,3.30
2024-03-24T01:01:50.654Z,3.23
2024-03-24T01:06:56.220Z,3.83
2024-03-24T01:12:02.009Z,3.67
2024-03-24T01:17:07.759Z,3.13
2024-03-24T01:22:14.872Z,3.07
2024-03-24T01:27:20.438Z,2.80
2024-03-24T01:32:26.100Z,3.73
2024-03-24T01:37:31.771Z,3.73
2024-03-24T01:42:37.327Z,4.03
2024-03-24T01:47:43.012Z,3.87
2024-03-24T01:52:48.829Z,4.20
2024-03-24T01:57:54.444Z,4.67
2024-03-24T02:03:00.328Z,3.73
2024-03-24T02:08:06.499Z,4.67
2024-03-24T02:13:12.192Z,4.37
2024-03-24T02:18:17.931Z,4.40
2024-03-24T02:23:23.595Z,4.87
2024-03-24T02:28:29.253Z,5.10
2024-03-24T02:33:34.923Z,4.60
2024-03-24T02:38:40.514Z,5.23
2024-03-24T02:43:46.172Z,4.87
2024-03-24T02:48:51.943Z,5.30
2024-03-24T02:53:57.606Z,5.60
2024-03-24T02:59:03.285Z,5.97
2024-03-24T03:04:09.984Z,5.83
2024-03-24T03:09:17.457Z,5.70
2024-03-24T03:14:23.353Z,6.20
2024-03-24T03:19:29.198Z,5.53
2024-03-24T03:24:35.101Z,4.93
2024-03-24T03:29:40.738Z,5.57
2024-03-24T03:34:46.321Z,5.60
2024-03-24T03:39:51.888Z,6.60
2024-03-24T03:44:58.470Z,5.90
2024-03-24T03:50:04.248Z,5.93
2024-03-24T03:55:12.021Z,5.47
2024-03-24T04:00:19.394Z,7.23
2024-03-24T04:05:25.544Z,6.10
2024-03-24T04:10:31.208Z,6.87
2024-03-24T04:15:39.910Z,6.10
2024-03-24T04:20:45.608Z,5.60
2024-03-24T04:25:54.159Z,7.30
2024-03-24T04:31:02.049Z,6.80
2024-03-24T04:36:09.177Z,6.73
2024-03-24T04:41:15.138Z,6.60
2024-03-24T04:46:20.842Z,8.50
2024-03-24T04:51:27.394Z,6.83
2024-03-24T04:56:33.292Z,6.37
2024-03-24T05:01:38.926Z,7.03
2024-03-24T05:06:44.613Z,8.43
2024-03-24T05:11:50.261Z,6.80
2024-03-24T05:16:55.989Z,7.37
2024-03-24T05:22:01.672Z,7.40
2024-03-24T05:27:07.368Z,8.63
2024-03-24T05:32:15.244Z,7.10
2024-03-24T05:37:20.913Z,8.87
2024-03-24T05:42:26.641Z,7.20
2024-03-24T05:47:32.858Z,8.43
2024-03-24T05:52:39.214Z,6.77
2024-03-24T05:57:44.976Z,7.57
2024-03-24T06:02:50.518Z,8.47
2024-03-24T06:07:56.235Z,8.83
2024-03-24T06:13:01.792Z,9.17
2024-03-24T06:18:08.904Z,8.73
2024-03-24T06:23:14.623Z,10.30
2024-03-24T06:28:20.975Z,9.13
2024-03-24T06:33:27.445Z,9.37
2024-03-24T06:38:33.155Z,9.47
2024-03-24T06:43:40.386Z,8.77
2024-03-24T06:48:46.028Z,9.13
2024-03-24T06:53:51.628Z,7.60
2024-03-24T06:58:57.188Z,7.83
2024-03-24T07:04:02.826Z,7.37
2024-03-24T07:09:08.397Z,7.07
2024-03-24T07:14:14.173Z,7.13
2024-03-24T07:19:20.995Z,7.47
2024-03-24T07:24:26.733Z,8.10
2024-03-24T07:29:32.522Z,8.13
2024-03-24T07:34:40.304Z,8.00
2024-03-24T07:39:45.886Z,7.70
2024-03-24T07:44:51.447Z,6.77
2024-03-24T07:49:59.770Z,7.60
2024-03-24T07:55:08.645Z,7.67
2024-03-24T08:00:15.531Z,7.00
2024-03-24T08:05:21.300Z,7.30
2024-03-24T08:10:27.047Z,7.00
2024-03-24T08:15:32.603Z,7.13
2024-03-24T08:20:38.280Z,5.93
2024-03-24T08:25:44.056Z,7.13
2024-03-24T08:30:49.618Z,7.43
2024-03-24T08:35:55.480Z,7.27
2024-03-24T08:41:01.153Z,6.77
2024-03-24T08:46:07.461Z,6.50
2024-03-24T08:51:13.095Z,7.13
2024-03-24T08:56:18.672Z,7.53
2024-03-24T09:01:24.525Z,8.20
2024-03-24T09:06:34.559Z,7.13
2024-03-24T09:11:40.171Z,7.20
2024-03-24T09:16:45.733Z,6.93
2024-03-24T09:21:51.326Z,7.70
2024-03-24T09:26:58.612Z,6.50
2024-03-24T09:32:04.274Z,6.73
2024-03-24T09:37:10.042Z,6.70
2024-03-24T09:42:17.152Z,6.27
2024-03-24T09:47:23.849Z,6.73
2024-03-24T09:52:34.237Z,6.00
2024-03-24T09:57:41.011Z,6.30
2024-03-24T10:02:47.298Z,6.50
2024-03-24T10:07:52.951Z,5.77
2024-03-24T10:12:59.426Z,4.83
2024-03-24T10:18:10.882Z,5.30
2024-03-24T10:23:16.541Z,4.67
2024-03-24T10:28:22.210Z,4.63
2024-03-24T10:33:27.847Z,3.93
2024-03-24T10:38:33.519Z,3.57
2024-03-24T10:43:40.036Z,3.93
2024-03-24T10:48:46.153Z,3.83
2024-03-24T10:53:52.973Z,4.27
2024-03-24T10:59:05.249Z,4.10
2024-03-24T11:04:11.886Z,3.87
2024-03-24T11:09:18.068Z,3.73
2024-03-24T11:14:25.684Z,3.67
2024-03-24T11:19:31.844Z,3.40
2024-03-24T11:24:37.522Z,3.40
2024-03-24T11:29:54.022Z,3.60
2024-03-24T11:35:00.243Z,3.70
2024-03-24T11:40:07.188Z,4.33
2024-03-24T11:45:33.301Z,4.13
2024-03-24T11:50:40.899Z,3.30
2024-03-24T11:55:47.662Z,3.30
2024-03-24T12:00:53.689Z,3.03
2024-03-24T12:05:59.444Z,3.30
2024-03-24T12:11:05.785Z,2.70
2024-03-24T12:16:17.737Z,3.40
2024-03-24T12:21:25.035Z,3.93
2024-03-24T12:26:30.821Z,3.73
2024-03-24T12:31:36.595Z,3.67
2024-03-24T12:36:42.540Z,3.90
2024-03-24T12:41:48.641Z,3.03
2024-03-24T12:46:54.394Z,3.30
2024-03-24T12:52:00.041Z,3.37
2024-03-24T12:57:06.595Z,2.70
2024-03-24T13:02:12.503Z,3.30
2024-03-24T13:07:20.132Z,2.47
2024-03-24T13:12:26.402Z,3.20
2024-03-24T13:17:34.560Z,3.00
2024-03-24T13:22:40.187Z,3.23
2024-03-24T13:27:51.290Z,2.60
2024-03-24T13:32:56.961Z,3.30
2024-03-24T13:38:36.003Z,3.53
2024-03-24T13:43:59.592Z,2.70
2024-03-24T13:49:05.766Z,2.80
2024-03-24T13:54:12.355Z,2.80
2024-03-24T13:59:18.033Z,3.10
2024-03-24T14:04:24.144Z,3.20
2024-03-24T14:09:29.773Z,3.40
2024-03-24T14:15:11.692Z,3.83
2024-03-24T14:20:19.341Z,3.93
2024-03-24T14:25:31.021Z,3.90
2024-03-24T14:30:36.680Z,3.93
2024-03-24T14:35:45.315Z,4.10
2024-03-24T14:41:13.713Z,4.13
2024-03-24T14:46:32.236Z,3.80
2024-03-24T14:51:37.848Z,4.03
2024-03-24T14:56:43.440Z,3.83
2024-03-24T15:01:49.275Z,3.60
2024-03-24T15:06:55.102Z,3.67
2024-03-24T15:12:01.367Z,2.90
2024-03-24T15:17:07.670Z,3.07
2024-03-24T15:22:13.812Z,3.47
2024-03-24T15:27:19.594Z,2.40
2024-03-24T15:32:25.161Z,3.10
2024-03-24T15:37:30.926Z,3.53
2024-03-24T15:42:37.595Z,3.67
2024-03-24T15:47:43.368Z,3.93
2024-03-24T15:52:49.038Z,3.73
2024-03-24T15:58:06.524Z,4.03
2024-03-24T16:03:12.343Z,3.93
2024-03-24T16:08:19.440Z,3.83
2024-03-24T16:13:28.120Z,3.70
2024-03-24T16:18:33.772Z,3.10
2024-03-24T16:23:39.337Z,3.20
2024-03-24T16:28:44.904Z,2.87
2024-03-24T16:33:51.283Z,2.87
2024-03-24T16:38:56.824Z,3.10
2024-03-24T16:44:02.521Z,3.30
2024-03-24T16:49:09.819Z,3.40
2024-03-24T16:54:15.709Z,3.00
2024-03-24T16:59:23.008Z,2.20
2024-03-24T17:04:29.034Z,2.40
2024-03-24T17:09:34.722Z,3.13
2024-03-24T17:14:40.281Z,3.27
2024-03-24T17:19:46.151Z,3.07
2024-03-24T17:24:51.981Z,3.17
2024-03-24T17:29:57.586Z,3.07
2024-03-24T17:35:03.986Z,2.60
2024-03-24T17:40:12.187Z,3.50
2024-03-24T17:45:17.972Z,2.60
2024-03-24T17:50:24.527Z,2.73
2024-03-24T17:55:31.770Z,2.40
2024-03-24T18:00:38.065Z,2.63
2024-03-24T18:05:44.119Z,2.53
2024-03-24T18:10:49.832Z,3.20
2024-03-24T18:15:56.093Z,2.40
2024-03-24T18:21:03.280Z,2.67
2024-03-24T18:26:09.861Z,2.70
2024-03-24T18:31:16.052Z,2.93
2024-03-24T18:36:21.720Z,3.50
2024-03-24T18:41:29.028Z,3.17
2024-03-24T18:46:34.687Z,3.40
2024-03-24T18:51:40.353Z,3.77
2024-03-24T18:56:45.920Z,2.87
2024-03-24T19:01:51.584Z,3.07
2024-03-24T19:06:57.252Z,2.47
2024-03-24T19:12:03.043Z,2.40
2024-03-24T19:17:08.824Z,2.90
2024-03-24T19:22:14.976Z,2.47
2024-03-24T19:27:20.967Z,2.20
2024-03-24T19:32:26.835Z,1.60
2024-03-24T19:37:33.107Z,1.10
2024-03-24T19:42:39.691Z,1.40
2024-03-24T19:47:46.835Z,1.23
2024-03-24T19:52:52.779Z,1.60
2024-03-24T19:58:00.274Z,1.47
2024-03-24T20:03:06.989Z,1.87
2024-03-24T20:08:12.562Z,1.57
2024-03-24T20:13:19.218Z,2.17
2024-03-24T20:18:26.319Z,1.60
2024-03-24T20:23:32.267Z,1.30
2024-03-24T20:28:38.074Z,1.10
2024-03-24T20:33:44.144Z,1.33
2024-03-24T20:38:49.864Z,1.30
2024-03-24T20:43:56.146Z,1.30
2024-03-24T20:49:01.777Z,1.60
2024-03-24T20:54:07.418Z,2.07
2024-03-24T20:59:13.203Z,2.10
2024-03-24T21:04:18.957Z,1.73
2024-03-24T21:09:24.626Z,2.73
2024-03-24T21:14:32.049Z,2.60
2024-03-24T21:19:37.984Z,2.40
2024-03-24T21:24:43.828Z,3.03
2024-03-24T21:29:50.280Z,2.57
2024-03-24T21:34:59.421Z,2.93
2024-03-24T21:40:23.202Z,2.67
2024-03-24T21:45:29.813Z,2.50
2024-03-24T21:50:35.699Z,2.57
2024-03-24T21:55:41.502Z,2.97
2024-03-24T22:00:47.098Z,3.40
2024-03-24T22:05:52.785Z,3.10
2024-03-24T22:10:58.641Z,3.17
2024-03-24T22:16:04.459Z,3.40
2024-03-24T22:21:10.791Z,4.13
2024-03-24T22:26:20.148Z,4.63
2024-03-24T22:31:25.710Z,5.93
2024-03-24T22:36:31.278Z,4.73
2024-03-24T22:41:37.367Z,4.77
2024-03-24T22:46:43.119Z,4.37
2024-03-24T22:51:48.793Z,4.53
2024-03-24T22:56:54.474Z,5.23
2024-03-24T23:02:00.130Z,4.87
2024-03-24T23:07:05.899Z,4.93
2024-03-24T23:12:11.558Z,5.17
2024-03-24T23:17:17.512Z,5.23
2024-03-24T23:22:23.210Z,4.60
2024-03-24T23:27:28.872Z,4.73
2024-03-24T23:32:34.534Z,5.20
2024-03-24T23:37:40.713Z,5.00
2024-03-24T23:42:46.382Z,5.30
2024-03-24T23:47:54.255Z,5.30
2024-03-24T23:52:59.882Z,5.67
2024-03-24T23:58:05.743Z,5.93
